Relevés horaires Piotta (Suisse)


Relevés horaires à Piotta - Lundi 13 Août 2007
Heure UTC1 Température [°C] Vent [km/h] Hum. [%] Pres.4 [hPa] Visi. [Km] Nébu. [octa] Préc.5 [mm] Cond.
2m. Res. Ros. Dir.2 Vit. Moy. Raf.3
23:00 14.8 14.5 14.1 O 9.3 11.1 18.5 96 850(0.5/3h) -- -- -- --
22:00 14.7 14.6 14.1 O 7.4 7.4 18.5 96 850(1.1/3h) -- -- -- --
21:00 15.0 15.0 14.0 SE 1.9 7.4 33.3 94 850(1.6/3h) 10 8/8 -- Légère bruine intermittente
20:00 16.5 16.5 12.1 N 7.4 7.4 33.3 75 850(1.2/3h) -- -- -- --
19:00 16.7 16.7 15.7 O 1.9 3.7 7.4 94 850 -- -- -- --
18:00 16.5 16.5 16.0 O 1.9 24.1 31.5 97 850(-0.1/3h) 15 6/8 2/12h
Nuages se dissipant
17:00 18.0 18.0 16.5 OSO 3.7 7.4 13.0 91 850(0.1/3h) -- -- -- --
16:00 18.2 18.2 16.8 OSO 1.9 11.1 -- 92 850 -- -- -- --
15:00 18.0 18.0 15.3 SE 1.9 24.1 31.5 84 850 10 8/8 -- Pluie modérée intermittente
14:00 20.5 20.5 14.3 ESE 9.3 18.5 25.9 68 850(0.4/3h) -- -- -- --
13:00 19.1 19.1 14.3 E 11.1 22.2 29.6 74 850(0.4/3h) -- -- -- --
12:00 19.8 19.8 13.7 E 16.7 24.1 31.5 68 850 25 6/8 -- --
11:00 19.5 19.3 13.3 E 22.2 24.1 31.5 67 850(0.1/3h) -- -- -- --
10:00 19.7 19.7 13.4 E 18.5 18.5 27.8 67 850(0.0/3h) -- -- -- --
09:00 19.5 19.5 13.0 E 13.0 13.0 20.4 66 850(-0.1/3h) 25 5/8 -- --
08:00 17.8 17.8 10.6 E 5.6 7.4 16.7 63 850(0.0/3h) -- -- -- --
07:00 15.3 15.3 11.7 ONO 1.9 9.3 18.5 79 850(0.5/3h) -- -- -- --
06:00 12.8 12.1 11.0 O 9.3 14.8 20.4 89 850(0.6/3h) 25 6/8 0/0h
--
05:00 11.8 11.8 10.8 ONO 1.9 9.3 16.7 94 850(0.5/3h) -- -- -- --
04:00 11.8 11.8 10.9 NNO 1.9 9.3 16.7 94 850(0.1/3h) -- -- -- --
03:00 12.9 12.5 11.4 O 7.4 9.3 16.7 91 850(0.2/3h) -- -- -- --
02:00 12.6 12.6 11.4 ONO 3.7 9.3 16.7 92 850(0.0/3h) -- -- -- --
01:00 13.1 12.8 11.5 O 7.4 7.4 14.8 90 850(0.2/3h) -- -- -- --
00:00 14.0 14.0 12.4 ONO 3.7 24.1 31.5 90 850(0.2/3h) 25 6/8 0/0h
--

1 Coordinated Universal Time. Actuellement il est 12:00 locale et 10:00 UTC.

2 Le vent souffle depuis la direction indiquée vers la direction oposée.

3 Les rafales max. sont disponible 40 min après l'heure du relevé.

4 Pour les stations d'altitude (plus de 600m) le géopotentiel du niveau le plus proche de la pression obligatoire est indiqué.

5 Les stations disposant d'un diffuseur peuvent indiquer "trace". Cela signifie que des précipitations ont touchés le sol mais que la quantité est inférieure à 0.1 mm.

Copyright

Les données affichées sur cette page sont la propriété exclusive de Météo Suisse.

Récapitulatif de la journée
Température [°C] Vent [km/h] Ensoleillement4 [h] Precipitations totale5 [mm] Pression [Hpa]
Min1 Max.2 Moy.3 Max. Min Max.
11.5 20.5 13.5 33.3 4 h 54 min 4 850.0 850.0

1 Température minimale relevée entre 18:00 UTC la veille et 18:00 UTC le jour donné.

2 Température maximale relevée entre 06:00 UTC le jour donné et 06:00 UTC le lendemain.

3 Vent moyen de la journée basé sur les relevés horaires.

4 Ensoleillement en heures relevé entre 06:00 UTC la veille et 06:00 UTC le jour donné.

5 Précipitations totales tombées entre 06:00 UTC la jour donné et 06:00 UTC le lendemain.

Graphiques horaires